Time;durP1;ratioP1;P1;durP2;ratioP2;P2;SDS_P1;SDS_P2;PMS_P1;PMS_P2;Temp;Humidity;BMP_temperature;BMP_pressure;BME280_temperature;BME280_humidity;BME280_pressure;Samples;Min_cycle;Max_cycle;Signal;HPM_P1;HPM_P2
2023/04/13 00:02:04;;;;;;;4.63;2.47;;;;;;;;;;5005355;28;20046;-62
2023/04/13 00:04:31;;;;;;;4.28;2.20;;;;;;;;;;5006496;28;20060;-62
2023/04/13 00:07:01;;;;;;;4.43;2.15;;;;;;;;;;5006288;28;20038;-62
2023/04/13 00:09:29;;;;;;;3.60;2.10;;;;;;;;;;5005642;28;20038;-62
2023/04/13 00:11:57;;;;;;;7.82;2.17;;;;;;;;;;5005933;28;20092;-61
2023/04/13 00:14:32;;;;;;;4.72;2.38;;;;;;;;;;5006475;28;20096;-61
2023/04/13 00:16:59;;;;;;;6.55;2.13;;;;;;;;;;5005721;28;20573;-62
2023/04/13 00:19:25;;;;;;;3.60;2.10;;;;;;;;;;5006373;28;20034;-61
2023/04/13 00:21:52;;;;;;;8.15;2.67;;;;;;;;;;5005904;28;20240;-61
2023/04/13 00:24:19;;;;;;;6.78;2.13;;;;;;;;;;5005148;28;20105;-61
2023/04/13 00:26:45;;;;;;;4.65;1.90;;;;;;;;;;5005465;28;20038;-61
2023/04/13 00:29:11;;;;;;;5.63;2.10;;;;;;;;;;5005717;28;20052;-62
2023/04/13 00:31:38;;;;;;;4.40;2.15;;;;;;;;;;5005997;28;20103;-61
2023/04/13 00:34:05;;;;;;;3.60;1.95;;;;;;;;;;5005000;28;20085;-61
2023/04/13 00:36:32;;;;;;;4.07;2.30;;;;;;;;;;5005416;28;20049;-61
2023/04/13 00:38:58;;;;;;;5.10;2.90;;;;;;;;;;5003572;28;20045;-62
2023/04/13 00:41:26;;;;;;;5.70;2.58;;;;;;;;;;5006280;28;20581;-61
2023/04/13 00:43:52;;;;;;;6.50;2.65;;;;;;;;;;5005407;28;20073;-61
2023/04/13 00:46:18;;;;;;;6.38;2.75;;;;;;;;;;5005655;28;20085;-61
2023/04/13 00:48:47;;;;;;;6.78;3.20;;;;;;;;;;5005756;28;20042;-60
2023/04/13 00:51:14;;;;;;;4.22;2.53;;;;;;;;;;5004340;28;20535;-60
2023/04/13 00:53:41;;;;;;;5.38;2.75;;;;;;;;;;5003863;28;20042;-61
2023/04/13 00:56:08;;;;;;;6.85;2.60;;;;;;;;;;5001581;28;20462;-61
2023/04/13 00:58:35;;;;;;;5.82;2.83;;;;;;;;;;5005444;28;20400;-61
2023/04/13 01:01:02;;;;;;;4.93;2.20;;;;;;;;;;5004619;28;20053;-61
2023/04/13 01:03:28;;;;;;;5.18;2.10;;;;;;;;;;5005534;28;20041;-60
2023/04/13 01:05:54;;;;;;;4.20;2.30;;;;;;;;;;5004919;28;20128;-61
2023/04/13 01:08:35;;;;;;;7.03;1.60;;;;;;;;;;5003663;28;20049;-61
2023/04/13 01:11:04;;;;;;;3.33;1.40;;;;;;;;;;5004797;28;20575;-61
2023/04/13 01:13:34;;;;;;;4.30;1.63;;;;;;;;;;5004680;28;20619;-61
2023/04/13 01:16:02;;;;;;;3.03;1.50;;;;;;;;;;5004051;28;20050;-62
2023/04/13 01:18:30;;;;;;;6.68;2.90;;;;;;;;;;5004596;28;20046;-62
2023/04/13 01:20:56;;;;;;;4.07;1.38;;;;;;;;;;5004534;28;20064;-61
2023/04/13 01:23:25;;;;;;;4.65;1.70;;;;;;;;;;5003743;28;20076;-61
2023/04/13 01:25:55;;;;;;;2.38;1.40;;;;;;;;;;5002849;28;20038;-61
2023/04/13 01:28:22;;;;;;;4.32;1.50;;;;;;;;;;5004343;28;20121;-61
2023/04/13 01:30:51;;;;;;;7.95;1.60;;;;;;;;;;5003871;28;20547;-63
2023/04/13 01:33:18;;;;;;;5.10;1.52;;;;;;;;;;5004321;28;20569;-61
2023/04/13 01:35:45;;;;;;;3.22;1.50;;;;;;;;;;5004698;28;20069;-61
2023/04/13 01:38:13;;;;;;;3.45;1.27;;;;;;;;;;5003276;28;20042;-61
2023/04/13 01:40:41;;;;;;;6.03;1.50;;;;;;;;;;5004230;28;20099;-61
2023/04/13 01:43:07;;;;;;;2.97;1.40;;;;;;;;;;5003461;28;20312;-61
2023/04/13 01:45:49;;;;;;;2.85;1.13;;;;;;;;;;5003987;28;20497;-61
2023/04/13 01:48:45;;;;;;;2.83;1.27;;;;;;;;;;5004107;28;20796;-61
2023/04/13 01:51:19;;;;;;;6.22;1.40;;;;;;;;;;5002927;28;20046;-61
2023/04/13 01:53:52;;;;;;;3.30;1.05;;;;;;;;;;5003307;28;20136;-61
2023/04/13 01:56:21;;;;;;;5.53;1.10;;;;;;;;;;5002935;28;20574;-61
2023/04/13 01:58:49;;;;;;;3.20;1.33;;;;;;;;;;5004034;28;20773;-61
2023/04/13 02:01:16;;;;;;;4.80;1.98;;;;;;;;;;5003894;28;20049;-59
2023/04/13 02:03:44;;;;;;;1.85;0.90;;;;;;;;;;5003747;28;20603;-61
2023/04/13 02:06:10;;;;;;;3.60;0.80;;;;;;;;;;5003560;28;20046;-61
2023/04/13 02:08:37;;;;;;;3.88;1.27;;;;;;;;;;5003359;28;20084;-61
2023/04/13 02:11:03;;;;;;;4.43;0.82;;;;;;;;;;5003301;28;20069;-62
2023/04/13 02:13:30;;;;;;;5.03;1.00;;;;;;;;;;5003553;28;20040;-62
2023/04/13 02:15:57;;;;;;;2.28;0.88;;;;;;;;;;5003411;28;20054;-61
2023/04/13 02:18:23;;;;;;;2.45;0.85;;;;;;;;;;5004121;28;20034;-61
2023/04/13 02:20:59;;;;;;;1.90;0.70;;;;;;;;;;5003577;28;20103;-61
2023/04/13 02:23:25;;;;;;;2.63;0.90;;;;;;;;;;5003315;28;20144;-61
2023/04/13 02:25:52;;;;;;;2.72;1.23;;;;;;;;;;5003726;28;20120;-61
2023/04/13 02:28:18;;;;;;;3.47;0.90;;;;;;;;;;5003653;28;20187;-62
2023/04/13 02:30:44;;;;;;;5.38;0.90;;;;;;;;;;5003812;28;20099;-62
2023/04/13 02:33:10;;;;;;;5.60;1.00;;;;;;;;;;5003287;28;20038;-62
2023/04/13 02:35:37;;;;;;;7.93;1.05;;;;;;;;;;5003451;28;20056;-62
2023/04/13 02:38:05;;;;;;;3.58;0.75;;;;;;;;;;5002424;28;20120;-62
2023/04/13 02:40:32;;;;;;;3.05;1.00;;;;;;;;;;5003330;28;20077;-62
2023/04/13 02:42:58;;;;;;;4.85;0.85;;;;;;;;;;5003628;28;20038;-64
2023/04/13 02:45:25;;;;;;;3.60;0.88;;;;;;;;;;5003909;28;20559;-62
2023/04/13 02:47:51;;;;;;;5.07;0.98;;;;;;;;;;5003127;28;20042;-62
2023/04/13 02:50:17;;;;;;;6.10;0.98;;;;;;;;;;5003443;28;20309;-62
2023/04/13 02:52:45;;;;;;;2.70;1.00;;;;;;;;;;5002996;28;20498;-62
2023/04/13 02:55:11;;;;;;;3.13;0.90;;;;;;;;;;5003288;28;20045;-62
2023/04/13 02:57:41;;;;;;;3.95;1.02;;;;;;;;;;5003245;28;20038;-62
2023/04/13 03:00:09;;;;;;;4.13;0.77;;;;;;;;;;5003077;28;20050;-62
2023/04/13 03:02:35;;;;;;;2.20;0.93;;;;;;;;;;5000251;28;20087;-62
2023/04/13 03:05:02;;;;;;;5.70;1.00;;;;;;;;;;5002968;28;20185;-62
2023/04/13 03:07:28;;;;;;;1.98;1.00;;;;;;;;;;5003259;28;20046;-64
2023/04/13 03:09:54;;;;;;;2.50;0.80;;;;;;;;;;5002123;28;20429;-61
2023/04/13 03:12:20;;;;;;;7.10;1.23;;;;;;;;;;4999647;28;20049;-61
2023/04/13 03:14:48;;;;;;;2.85;1.13;;;;;;;;;;5003183;28;20045;-61
2023/04/13 03:17:15;;;;;;;2.60;1.00;;;;;;;;;;5003178;28;20042;-61
2023/04/13 03:19:45;;;;;;;2.45;0.80;;;;;;;;;;5003418;28;20308;-61
2023/04/13 03:22:12;;;;;;;2.00;0.88;;;;;;;;;;5002282;28;20659;-61
2023/04/13 03:24:38;;;;;;;4.53;1.08;;;;;;;;;;5000906;28;20042;-61
2023/04/13 03:27:05;;;;;;;5.22;0.90;;;;;;;;;;5006316;28;20053;-62
2023/04/13 03:29:31;;;;;;;3.40;1.20;;;;;;;;;;5006743;28;20038;-61
2023/04/13 03:31:58;;;;;;;1.40;0.98;;;;;;;;;;5006260;28;20368;-61
2023/04/13 03:34:24;;;;;;;2.58;1.20;;;;;;;;;;5007473;28;20060;-61
2023/04/13 03:36:51;;;;;;;4.80;1.20;;;;;;;;;;5006307;28;20049;-62
2023/04/13 03:39:17;;;;;;;2.47;1.10;;;;;;;;;;5006083;28;20046;-61
2023/04/13 03:41:44;;;;;;;6.70;2.42;;;;;;;;;;5006271;28;20117;-61
2023/04/13 03:44:10;;;;;;;2.65;1.10;;;;;;;;;;5006371;28;20041;-62
2023/04/13 03:46:36;;;;;;;4.68;1.20;;;;;;;;;;5006558;28;20095;-61
2023/04/13 03:49:06;;;;;;;3.20;1.15;;;;;;;;;;5006202;28;20050;-61
2023/04/13 03:51:32;;;;;;;1.58;0.93;;;;;;;;;;5006261;28;20041;-62
2023/04/13 03:53:58;;;;;;;3.17;1.10;;;;;;;;;;5005467;28;20096;-63
2023/04/13 03:56:25;;;;;;;2.58;1.10;;;;;;;;;;5006342;28;20092;-61
2023/04/13 03:58:51;;;;;;;17.20;3.47;;;;;;;;;;5005644;28;20046;-61
2023/04/13 04:01:18;;;;;;;2.35;1.08;;;;;;;;;;5005700;28;20541;-62
2023/04/13 04:03:44;;;;;;;2.55;1.38;;;;;;;;;;5006387;28;20130;-63
2023/04/13 04:06:10;;;;;;;1.90;1.00;;;;;;;;;;5005892;28;20038;-62
2023/04/13 04:08:36;;;;;;;2.58;1.10;;;;;;;;;;5005264;28;20042;-62
2023/04/13 04:11:03;;;;;;;2.63;1.10;;;;;;;;;;5005145;28;20091;-62
2023/04/13 04:13:29;;;;;;;2.58;1.65;;;;;;;;;;5005940;28;20081;-63
2023/04/13 04:15:57;;;;;;;4.70;1.23;;;;;;;;;;5006068;28;20061;-62
2023/04/13 04:18:23;;;;;;;4.07;1.35;;;;;;;;;;5005711;28;20484;-62
2023/04/13 04:20:49;;;;;;;4.38;1.42;;;;;;;;;;5005520;28;20033;-61
2023/04/13 04:23:17;;;;;;;6.15;1.60;;;;;;;;;;5004990;28;20574;-61
2023/04/13 04:25:44;;;;;;;2.40;1.25;;;;;;;;;;5005386;28;20038;-61
2023/04/13 04:28:14;;;;;;;11.35;1.52;;;;;;;;;;5004998;28;20050;-61
2023/04/13 04:30:41;;;;;;;3.00;1.27;;;;;;;;;;5005472;28;20065;-62
2023/04/13 04:33:07;;;;;;;3.92;1.45;;;;;;;;;;5005453;28;20050;-62
2023/04/13 04:35:33;;;;;;;3.08;1.80;;;;;;;;;;5004985;28;20052;-62
2023/04/13 04:38:03;;;;;;;5.65;1.75;;;;;;;;;;5004067;28;20404;-62
2023/04/13 04:40:29;;;;;;;2.78;1.35;;;;;;;;;;5004861;28;20496;-61
2023/04/13 04:42:57;;;;;;;4.50;1.58;;;;;;;;;;5005395;28;20042;-61
2023/04/13 04:45:26;;;;;;;4.05;1.60;;;;;;;;;;5005357;28;20042;-61
2023/04/13 04:47:52;;;;;;;5.45;1.90;;;;;;;;;;5004117;28;20050;-61
2023/04/13 04:50:18;;;;;;;3.72;1.85;;;;;;;;;;5004251;28;20358;-62
2023/04/13 04:52:44;;;;;;;4.53;2.00;;;;;;;;;;5003928;28;20038;-61
2023/04/13 04:55:11;;;;;;;4.30;2.28;;;;;;;;;;5004603;28;20042;-61
2023/04/13 04:57:37;;;;;;;9.15;1.85;;;;;;;;;;5005021;28;20042;-61
2023/04/13 05:00:09;;;;;;;5.30;2.00;;;;;;;;;;5036534;28;20129;-62
2023/04/13 05:02:35;;;;;;;7.82;2.17;;;;;;;;;;5004725;28;20454;-62
2023/04/13 05:05:02;;;;;;;8.60;2.45;;;;;;;;;;5000480;28;20734;-61
2023/04/13 05:07:29;;;;;;;5.22;2.10;;;;;;;;;;5002603;28;20128;-62
2023/04/13 05:09:55;;;;;;;7.68;2.20;;;;;;;;;;5004965;28;20046;-61
2023/04/13 05:12:21;;;;;;;5.57;2.70;;;;;;;;;;5005324;28;20659;-62
2023/04/13 05:14:48;;;;;;;5.85;1.77;;;;;;;;;;5004417;28;20054;-63
2023/04/13 05:17:17;;;;;;;5.75;2.00;;;;;;;;;;5005179;28;20415;-60
2023/04/13 05:19:45;;;;;;;6.22;2.15;;;;;;;;;;5004247;28;20079;-58
2023/04/13 05:22:12;;;;;;;8.20;2.15;;;;;;;;;;5003436;28;20129;-62
2023/04/13 05:24:39;;;;;;;5.72;1.77;;;;;;;;;;5005391;28;20054;-63
2023/04/13 05:27:08;;;;;;;7.38;2.13;;;;;;;;;;5005389;28;20053;-62
2023/04/13 05:29:34;;;;;;;3.97;1.90;;;;;;;;;;5003167;28;20038;-62
2023/04/13 05:32:00;;;;;;;5.50;2.03;;;;;;;;;;5026533;28;20124;-62
2023/04/13 05:34:26;;;;;;;5.70;1.88;;;;;;;;;;5006174;28;20073;-61
2023/04/13 05:36:53;;;;;;;8.02;2.28;;;;;;;;;;4990211;28;20049;-62
2023/04/13 05:39:19;;;;;;;8.80;2.30;;;;;;;;;;4991371;28;20057;-62
2023/04/13 05:41:45;;;;;;;5.90;2.30;;;;;;;;;;4997980;28;20479;-62
2023/04/13 05:44:11;;;;;;;7.47;2.50;;;;;;;;;;5004860;28;20038;-62
2023/04/13 05:46:38;;;;;;;8.38;2.53;;;;;;;;;;5004737;28;20049;-61
2023/04/13 05:49:04;;;;;;;10.93;2.95;;;;;;;;;;5004626;28;20046;-62
2023/04/13 05:51:31;;;;;;;9.77;2.45;;;;;;;;;;5002306;28;20050;-60
2023/04/13 05:53:57;;;;;;;6.32;2.35;;;;;;;;;;5003304;28;20048;-61
2023/04/13 05:56:25;;;;;;;5.60;2.13;;;;;;;;;;5005010;28;20056;-61
2023/04/13 05:58:52;;;;;;;5.55;2.40;;;;;;;;;;5003508;28;20050;-61
2023/04/13 06:01:18;;;;;;;7.25;2.63;;;;;;;;;;5004516;28;20054;-61
2023/04/13 06:03:45;;;;;;;7.15;2.22;;;;;;;;;;5004065;28;20044;-60
2023/04/13 06:06:11;;;;;;;5.68;1.90;;;;;;;;;;5004054;28;20096;-60
2023/04/13 06:08:38;;;;;;;8.75;4.45;;;;;;;;;;5003110;28;20499;-60
2023/04/13 06:11:05;;;;;;;10.73;3.65;;;;;;;;;;5004028;28;20531;-61
2023/04/13 06:13:32;;;;;;;3.78;1.95;;;;;;;;;;5003049;28;20065;-61
2023/04/13 06:15:59;;;;;;;14.15;4.90;;;;;;;;;;5003332;28;20245;-62
2023/04/13 06:18:25;;;;;;;10.40;2.50;;;;;;;;;;5004504;28;20038;-60
2023/04/13 06:20:52;;;;;;;6.70;2.30;;;;;;;;;;5003942;28;20045;-60
2023/04/13 06:23:18;;;;;;;5.35;2.30;;;;;;;;;;5003614;28;20152;-60
2023/04/13 06:25:44;;;;;;;8.15;2.92;;;;;;;;;;5004219;28;20073;-60
2023/04/13 06:28:11;;;;;;;6.13;2.55;;;;;;;;;;5004101;28;20080;-60
2023/04/13 06:30:38;;;;;;;8.95;3.80;;;;;;;;;;5003594;28;20057;-61
2023/04/13 06:33:05;;;;;;;6.45;2.67;;;;;;;;;;5003936;28;20451;-60
2023/04/13 06:35:32;;;;;;;11.98;3.70;;;;;;;;;;5003034;28;20041;-60
2023/04/13 06:38:00;;;;;;;15.40;4.07;;;;;;;;;;5003324;28;20496;-61
2023/04/13 06:40:27;;;;;;;8.27;2.75;;;;;;;;;;5004827;28;20046;-60
2023/04/13 06:42:53;;;;;;;10.98;5.82;;;;;;;;;;5003469;28;20052;-60
2023/04/13 06:45:20;;;;;;;9.48;2.95;;;;;;;;;;5003806;28;20590;-60
2023/04/13 06:47:46;;;;;;;11.00;2.95;;;;;;;;;;5003788;28;20060;-60
2023/04/13 06:50:14;;;;;;;8.43;3.30;;;;;;;;;;5003980;28;20054;-60
2023/04/13 06:52:42;;;;;;;8.00;3.03;;;;;;;;;;5002923;28;20046;-60
2023/04/13 06:55:08;;;;;;;9.45;2.90;;;;;;;;;;5003632;28;20045;-60
2023/04/13 06:57:34;;;;;;;9.77;2.90;;;;;;;;;;5003879;28;21637;-61
2023/04/13 07:00:00;;;;;;;7.25;3.05;;;;;;;;;;5007258;28;20048;-60
2023/04/13 07:02:26;;;;;;;13.65;2.95;;;;;;;;;;5007772;28;20054;-60
2023/04/13 07:04:52;;;;;;;6.97;3.03;;;;;;;;;;5007470;28;20046;-60
2023/04/13 07:07:19;;;;;;;9.70;2.83;;;;;;;;;;5006973;28;20081;-60
2023/04/13 07:09:45;;;;;;;11.60;3.08;;;;;;;;;;5007160;28;20475;-60
2023/04/13 07:12:11;;;;;;;5.82;2.22;;;;;;;;;;5006941;28;20526;-60
2023/04/13 07:14:38;;;;;;;7.05;2.78;;;;;;;;;;5007340;28;20042;-60
2023/04/13 07:17:05;;;;;;;7.60;2.60;;;;;;;;;;5007195;28;20049;-60
2023/04/13 07:19:32;;;;;;;7.47;2.40;;;;;;;;;;5007372;28;20049;-61
2023/04/13 07:21:58;;;;;;;12.50;3.28;;;;;;;;;;5006992;28;20120;-60
2023/04/13 07:24:26;;;;;;;6.82;2.65;;;;;;;;;;5007597;28;20052;-60
2023/04/13 07:26:52;;;;;;;8.40;2.40;;;;;;;;;;5007074;28;20060;-60
2023/04/13 07:29:19;;;;;;;7.35;1.67;;;;;;;;;;5007155;28;20050;-60
2023/04/13 07:31:46;;;;;;;8.10;1.77;;;;;;;;;;5007031;28;20045;-60
2023/04/13 07:34:12;;;;;;;5.78;1.98;;;;;;;;;;5007269;28;20061;-60
2023/04/13 07:36:38;;;;;;;4.13;1.90;;;;;;;;;;5007398;28;20054;-60
2023/04/13 07:39:07;;;;;;;7.75;2.30;;;;;;;;;;5006045;28;20049;-60
2023/04/13 07:41:33;;;;;;;;;;;;;;;;;;5007850;28;20049;-60
2023/04/13 07:43:59;;;;;;;5.68;2.20;;;;;;;;;;5006389;28;19972;-61
2023/04/13 07:46:26;;;;;;;14.63;2.60;;;;;;;;;;5007587;28;20042;-60
2023/04/13 07:48:53;;;;;;;10.25;2.00;;;;;;;;;;5006244;28;20627;-60
2023/04/13 07:51:19;;;;;;;8.45;2.25;;;;;;;;;;5007182;28;20042;-60
2023/04/13 07:53:46;;;;;;;8.02;2.55;;;;;;;;;;5004739;28;20397;-60
2023/04/13 07:56:12;;;;;;;7.45;2.15;;;;;;;;;;5006463;28;20037;-60
2023/04/13 07:58:38;;;;;;;7.43;2.95;;;;;;;;;;5006609;28;20093;-60
2023/04/13 08:01:04;;;;;;;11.15;2.95;;;;;;;;;;5006551;28;20046;-61
2023/04/13 08:03:34;;;;;;;11.20;3.17;;;;;;;;;;5006538;28;20042;-60
2023/04/13 08:06:01;;;;;;;4.03;2.30;;;;;;;;;;5006305;28;20042;-61
2023/04/13 08:08:28;;;;;;;10.35;2.75;;;;;;;;;;5005741;28;20061;-61
2023/04/13 08:10:55;;;;;;;7.72;2.15;;;;;;;;;;5005612;28;20399;-61
2023/04/13 08:13:22;;;;;;;6.88;2.08;;;;;;;;;;5006340;28;20184;-60
2023/04/13 08:15:48;;;;;;;6.50;2.13;;;;;;;;;;5006270;28;20096;-61
2023/04/13 08:18:15;;;;;;;5.95;1.83;;;;;;;;;;5006216;28;20575;-60
2023/04/13 08:20:41;;;;;;;4.25;2.05;;;;;;;;;;5006412;28;20100;-60
2023/04/13 08:23:07;;;;;;;6.00;1.98;;;;;;;;;;5005186;28;20096;-59
2023/04/13 08:25:38;;;;;;;6.75;2.03;;;;;;;;;;5006210;28;20515;-60
2023/04/13 08:28:04;;;;;;;8.73;1.95;;;;;;;;;;5006390;28;20341;-59
2023/04/13 08:30:32;;;;;;;9.68;1.95;;;;;;;;;;5005986;28;20407;-59
2023/04/13 08:32:58;;;;;;;6.40;1.92;;;;;;;;;;5006013;28;20046;-60
2023/04/13 08:35:25;;;;;;;4.00;1.42;;;;;;;;;;5004705;28;20459;-60
2023/04/13 08:37:52;;;;;;;4.63;1.33;;;;;;;;;;5005258;28;20096;-60
2023/04/13 08:40:19;;;;;;;7.32;1.63;;;;;;;;;;5005665;28;20144;-60
2023/04/13 08:42:46;;;;;;;2.22;1.10;;;;;;;;;;5005547;28;20082;-59
2023/04/13 08:45:13;;;;;;;4.88;1.20;;;;;;;;;;5004063;28;20488;-60
2023/04/13 08:47:40;;;;;;;3.40;1.13;;;;;;;;;;5005847;28;20041;-60
2023/04/13 08:50:06;;;;;;;6.93;1.23;;;;;;;;;;5005700;28;20121;-59
2023/04/13 08:52:33;;;;;;;2.85;1.00;;;;;;;;;;5004979;28;20053;-59
2023/04/13 08:55:02;;;;;;;6.00;0.90;;;;;;;;;;5005267;28;20038;-60
2023/04/13 08:57:28;;;;;;;;;;;;;;;;;;5006324;28;20057;-59
2023/04/13 08:59:56;;;;;;;5.75;0.47;;;;;;;;;;5005841;28;19921;-59
2023/04/13 09:02:24;;;;;;;5.30;0.95;;;;;;;;;;5005571;28;20053;-60
2023/04/13 09:04:53;;;;;;;2.55;0.65;;;;;;;;;;5005307;28;20107;-60
2023/04/13 09:07:25;;;;;;;4.93;0.60;;;;;;;;;;5004580;28;20116;-60
2023/04/13 09:09:54;;;;;;;3.28;0.43;;;;;;;;;;5004855;28;20062;-59
2023/04/13 09:12:20;;;;;;;3.70;0.57;;;;;;;;;;5005585;28;20042;-60
2023/04/13 09:14:46;;;;;;;10.73;0.68;;;;;;;;;;5005133;28;20092;-59
2023/04/13 09:17:24;;;;;;;5.80;0.70;;;;;;;;;;5004594;28;20302;-60
2023/04/13 09:19:51;;;;;;;3.58;0.30;;;;;;;;;;5004937;28;20045;-60
2023/04/13 09:22:17;;;;;;;6.03;0.70;;;;;;;;;;5003337;28;20663;-59
2023/04/13 09:24:43;;;;;;;1.63;0.68;;;;;;;;;;5005358;28;20061;-60
2023/04/13 09:27:18;;;;;;;5.03;0.90;;;;;;;;;;5004701;28;20125;-60
2023/04/13 09:29:51;;;;;;;2.75;0.70;;;;;;;;;;5004842;28;20056;-59
2023/04/13 09:32:19;;;;;;;4.78;2.05;;;;;;;;;;5004733;28;20033;-59
2023/04/13 09:34:46;;;;;;;3.03;0.57;;;;;;;;;;5005160;28;20048;-59
2023/04/13 09:37:12;;;;;;;4.28;0.90;;;;;;;;;;5004490;28;20092;-60
2023/04/13 09:39:39;;;;;;;3.58;0.70;;;;;;;;;;5005082;28;20455;-59
2023/04/13 09:42:10;;;;;;;4.05;0.65;;;;;;;;;;5004473;28;20788;-59
2023/04/13 09:44:36;;;;;;;3.78;0.60;;;;;;;;;;5004526;28;20690;-59
2023/04/13 09:47:05;;;;;;;2.40;0.68;;;;;;;;;;5003890;28;20455;-60
2023/04/13 09:49:37;;;;;;;6.93;0.90;;;;;;;;;;5004807;28;20080;-60
2023/04/13 09:52:03;;;;;;;4.13;0.80;;;;;;;;;;5003449;28;20081;-59
2023/04/13 09:54:29;;;;;;;4.50;0.70;;;;;;;;;;5004651;28;20038;-60
2023/04/13 09:56:56;;;;;;;8.23;1.10;;;;;;;;;;5004819;28;20052;-59
2023/04/13 09:59:23;;;;;;;5.90;0.68;;;;;;;;;;5004466;28;20049;-60
2023/04/13 10:01:50;;;;;;;6.63;0.90;;;;;;;;;;5003986;28;20073;-61
2023/04/13 10:04:17;;;;;;;9.93;1.20;;;;;;;;;;5004304;28;20348;-60
2023/04/13 10:06:44;;;;;;;5.35;0.77;;;;;;;;;;5003783;28;20042;-60
2023/04/13 10:09:11;;;;;;;2.13;0.57;;;;;;;;;;5003706;28;20045;-60
2023/04/13 10:11:40;;;;;;;2.95;0.90;;;;;;;;;;5004172;28;20049;-60
2023/04/13 10:14:11;;;;;;;2.90;0.60;;;;;;;;;;5004138;28;20046;-60
2023/04/13 10:16:50;;;;;;;4.90;0.50;;;;;;;;;;5004133;28;20061;-60
2023/04/13 10:19:19;;;;;;;2.88;0.40;;;;;;;;;;5004516;28;20050;-59
2023/04/13 10:21:47;;;;;;;3.60;0.50;;;;;;;;;;5003443;28;20404;-59
2023/04/13 10:24:13;;;;;;;1.67;0.50;;;;;;;;;;5004067;28;20050;-59
2023/04/13 10:26:42;;;;;;;9.15;1.00;;;;;;;;;;5003982;28;20488;-60
2023/04/13 10:29:10;;;;;;;7.60;1.00;;;;;;;;;;5004249;28;20551;-60
2023/04/13 10:31:36;;;;;;;9.77;2.00;;;;;;;;;;5003904;28;20169;-59
2023/04/13 10:34:04;;;;;;;4.38;0.90;;;;;;;;;;5003115;28;20100;-60
2023/04/13 10:36:41;;;;;;;5.45;1.55;;;;;;;;;;5003280;28;20042;-60
2023/04/13 10:39:08;;;;;;;7.53;1.38;;;;;;;;;;5003778;28;20111;-60
2023/04/13 10:41:35;;;;;;;2.97;0.80;;;;;;;;;;5004306;28;20042;-60
2023/04/13 10:44:04;;;;;;;6.35;0.77;;;;;;;;;;5003588;28;20052;-60
2023/04/13 10:46:33;;;;;;;7.35;1.35;;;;;;;;;;5003833;28;20046;-60
2023/04/13 10:48:59;;;;;;;4.80;1.10;;;;;;;;;;5002685;28;20054;-60
2023/04/13 10:51:26;;;;;;;5.13;0.80;;;;;;;;;;5000583;28;20046;-60
2023/04/13 10:53:53;;;;;;;5.55;0.90;;;;;;;;;;5003067;28;20034;-60
2023/04/13 10:56:19;;;;;;;5.72;0.93;;;;;;;;;;5003273;28;20041;-60
2023/04/13 10:58:52;;;;;;;10.00;1.33;;;;;;;;;;5003636;28;20153;-59
2023/04/13 11:01:19;;;;;;;5.03;0.90;;;;;;;;;;5034388;28;20054;-60
2023/04/13 11:03:46;;;;;;;7.15;1.60;;;;;;;;;;5003218;28;20154;-59
2023/04/13 11:06:12;;;;;;;5.28;1.55;;;;;;;;;;5002802;28;20073;-60
2023/04/13 11:08:41;;;;;;;8.80;1.88;;;;;;;;;;5003029;28;20046;-59
2023/04/13 11:11:07;;;;;;;13.60;1.92;;;;;;;;;;5002028;28;20077;-60
2023/04/13 11:13:33;;;;;;;8.75;1.33;;;;;;;;;;5003598;28;20132;-60
2023/04/13 11:16:01;;;;;;;13.10;2.47;;;;;;;;;;5003136;28;20057;-60
2023/04/13 11:18:27;;;;;;;7.10;1.10;;;;;;;;;;5035439;28;20060;-60
2023/04/13 11:20:53;;;;;;;9.48;1.55;;;;;;;;;;5003403;28;20064;-60
2023/04/13 11:23:22;;;;;;;11.57;1.30;;;;;;;;;;5002297;28;20135;-60
2023/04/13 11:25:53;;;;;;;7.47;1.48;;;;;;;;;;5003810;28;20046;-61
2023/04/13 11:28:19;;;;;;;9.90;1.40;;;;;;;;;;5003742;28;20038;-60
2023/04/13 11:30:55;;;;;;;10.73;1.30;;;;;;;;;;5003858;28;20188;-60
2023/04/13 11:33:23;;;;;;;9.30;2.15;;;;;;;;;;5002979;28;20034;-60
2023/04/13 11:35:50;;;;;;;16.48;1.88;;;;;;;;;;5002981;28;20519;-61
2023/04/13 11:38:16;;;;;;;8.25;1.73;;;;;;;;;;5001437;28;20050;-60
2023/04/13 11:40:44;;;;;;;8.52;1.00;;;;;;;;;;5003326;28;20042;-60
2023/04/13 11:43:10;;;;;;;16.42;1.33;;;;;;;;;;5002995;28;20574;-59
2023/04/13 11:45:38;;;;;;;13.13;1.75;;;;;;;;;;5004575;28;20042;-59
2023/04/13 11:48:07;;;;;;;8.73;0.90;;;;;;;;;;5006735;28;20053;-59
2023/04/13 11:50:33;;;;;;;11.57;1.10;;;;;;;;;;5038868;28;20060;-60
2023/04/13 11:52:59;;;;;;;9.13;1.10;;;;;;;;;;5006020;28;20575;-60
2023/04/13 11:55:25;;;;;;;7.85;1.13;;;;;;;;;;5006954;28;20052;-59
2023/04/13 11:57:52;;;;;;;9.63;1.08;;;;;;;;;;5006033;28;20038;-59
2023/04/13 12:00:26;;;;;;;9.23;1.02;;;;;;;;;;5006573;28;20054;-60
2023/04/13 12:02:54;;;;;;;9.65;1.23;;;;;;;;;;5006084;28;20041;-59
2023/04/13 12:05:22;;;;;;;;;;;;;;;;;;5007217;28;20042;-60
2023/04/13 12:07:48;;;;;;;6.55;1.00;;;;;;;;;;5005677;28;19925;-61
2023/04/13 12:10:19;;;;;;;8.88;1.00;;;;;;;;;;5006008;28;20048;-59
2023/04/13 12:12:46;;;;;;;8.95;0.88;;;;;;;;;;5006043;28;20046;-59
2023/04/13 12:15:12;;;;;;;6.15;0.80;;;;;;;;;;5006235;28;20072;-59
2023/04/13 12:17:38;;;;;;;4.85;1.10;;;;;;;;;;5006599;28;20598;-60
2023/04/13 12:20:06;;;;;;;6.97;0.90;;;;;;;;;;5005745;28;20046;-60
2023/04/13 12:22:39;;;;;;;7.60;1.27;;;;;;;;;;5005845;28;20042;-60
2023/04/13 12:25:12;;;;;;;6.13;1.30;;;;;;;;;;5005837;28;20514;-60
2023/04/13 12:27:39;;;;;;;7.13;0.77;;;;;;;;;;5006011;28;20053;-61
2023/04/13 12:30:09;;;;;;;6.68;1.25;;;;;;;;;;5002555;28;20440;-61
2023/04/13 12:32:39;;;;;;;9.65;1.25;;;;;;;;;;5005583;28;20391;-60
2023/04/13 12:35:06;;;;;;;14.52;1.65;;;;;;;;;;5005973;28;20041;-61
2023/04/13 12:37:32;;;;;;;7.18;1.33;;;;;;;;;;5005030;28;20041;-61
2023/04/13 12:39:58;;;;;;;9.82;1.10;;;;;;;;;;5004838;28;20107;-63
2023/04/13 12:42:24;;;;;;;12.20;1.10;;;;;;;;;;5037395;28;20046;-61
2023/04/13 12:44:50;;;;;;;9.43;1.33;;;;;;;;;;5004882;28;20403;-61
2023/04/13 12:47:17;;;;;;;8.18;0.98;;;;;;;;;;5005346;28;20172;-61
2023/04/13 12:49:43;;;;;;;16.95;1.75;;;;;;;;;;5005668;28;20041;-61
2023/04/13 12:52:09;;;;;;;13.93;1.55;;;;;;;;;;5035880;28;20054;-60
2023/04/13 12:54:35;;;;;;;9.95;1.00;;;;;;;;;;4998771;28;20069;-60
2023/04/13 12:57:02;;;;;;;9.57;1.38;;;;;;;;;;5005551;28;20518;-60
2023/04/13 12:59:28;;;;;;;8.15;1.00;;;;;;;;;;5001089;28;20054;-61
2023/04/13 13:01:54;;;;;;;9.25;1.63;;;;;;;;;;5006043;28;20037;-60
2023/04/13 13:04:20;;;;;;;10.25;1.38;;;;;;;;;;5005695;28;20056;-60
2023/04/13 13:06:49;;;;;;;10.00;1.10;;;;;;;;;;4997307;28;20112;-63
2023/04/13 13:09:15;;;;;;;6.75;0.90;;;;;;;;;;5005377;28;20100;-60
2023/04/13 13:11:41;;;;;;;11.00;1.50;;;;;;;;;;5013792;28;20046;-60
2023/04/13 13:14:07;;;;;;;10.18;0.70;;;;;;;;;;5003973;28;20511;-60
2023/04/13 13:16:34;;;;;;;12.32;1.67;;;;;;;;;;5004293;28;20146;-60
2023/04/13 13:19:01;;;;;;;8.88;0.98;;;;;;;;;;5000992;28;20053;-60
2023/04/13 13:21:27;;;;;;;8.82;0.80;;;;;;;;;;5001677;28;20046;-59
2023/04/13 13:23:53;;;;;;;12.20;1.48;;;;;;;;;;5005075;28;20484;-60
2023/04/13 13:26:20;;;;;;;6.93;1.10;;;;;;;;;;5005290;28;20068;-60
2023/04/13 13:28:46;;;;;;;9.32;0.88;;;;;;;;;;5005102;28;20046;-60
2023/04/13 13:31:14;;;;;;;11.90;1.15;;;;;;;;;;5005021;28;20054;-59
2023/04/13 13:33:40;;;;;;;13.23;1.42;;;;;;;;;;5004873;28;20045;-60
2023/04/13 13:36:06;;;;;;;9.18;0.90;;;;;;;;;;5035900;28;20045;-60
2023/04/13 13:38:33;;;;;;;13.13;0.85;;;;;;;;;;5004771;28;20046;-60
2023/04/13 13:40:59;;;;;;;7.93;0.88;;;;;;;;;;5004439;28;20061;-60
2023/04/13 13:43:25;;;;;;;12.77;1.02;;;;;;;;;;5005159;28;20041;-59
2023/04/13 13:45:51;;;;;;;7.43;0.85;;;;;;;;;;5004469;28;20045;-60
2023/04/13 13:48:17;;;;;;;6.30;0.77;;;;;;;;;;5003399;28;20042;-60
2023/04/13 13:50:44;;;;;;;4.85;0.60;;;;;;;;;;5004362;28;20053;-60
2023/04/13 13:53:10;;;;;;;4.35;0.63;;;;;;;;;;5003551;28;20128;-60
2023/04/13 13:55:36;;;;;;;9.45;1.00;;;;;;;;;;5004273;28;20041;-60
2023/04/13 13:58:02;;;;;;;14.25;2.33;;;;;;;;;;5003909;28;20049;-60
2023/04/13 14:00:29;;;;;;;5.28;0.90;;;;;;;;;;5003693;28;20069;-60
2023/04/13 14:02:55;;;;;;;10.02;1.15;;;;;;;;;;5004250;28;20042;-60
2023/04/13 14:05:22;;;;;;;7.63;1.02;;;;;;;;;;5003762;28;20038;-60
2023/04/13 14:07:48;;;;;;;9.95;1.17;;;;;;;;;;5002697;28;20073;-62
2023/04/13 14:10:14;;;;;;;7.00;1.80;;;;;;;;;;5004050;28;20483;-60
2023/04/13 14:12:41;;;;;;;12.10;1.40;;;;;;;;;;5004307;28;20038;-59
2023/04/13 14:15:08;;;;;;;8.18;1.25;;;;;;;;;;5003790;28;20085;-59
2023/04/13 14:17:35;;;;;;;9.63;1.17;;;;;;;;;;5003971;28;20054;-59
2023/04/13 14:20:07;;;;;;;7.05;1.27;;;;;;;;;;5003690;28;20052;-59
2023/04/13 14:22:33;;;;;;;13.15;1.40;;;;;;;;;;5003896;28;20112;-59
2023/04/13 14:24:59;;;;;;;10.57;1.00;;;;;;;;;;5004032;28;20050;-60
2023/04/13 14:27:25;;;;;;;11.60;1.40;;;;;;;;;;5004547;28;20380;-60
2023/04/13 14:29:52;;;;;;;8.48;1.38;;;;;;;;;;5003804;28;20104;-61
2023/04/13 14:32:18;;;;;;;11.40;1.20;;;;;;;;;;5004148;28;20612;-62
2023/04/13 14:34:44;;;;;;;5.53;1.10;;;;;;;;;;5004008;28;20049;-61
2023/04/13 14:37:12;;;;;;;6.43;0.98;;;;;;;;;;5002909;28;20038;-60
2023/04/13 14:39:38;;;;;;;7.78;1.25;;;;;;;;;;5004465;28;20060;-60
2023/04/13 14:42:05;;;;;;;8.32;1.00;;;;;;;;;;5003829;28;20044;-60
2023/04/13 14:44:31;;;;;;;8.75;0.95;;;;;;;;;;5003932;28;20046;-60